sensor_id;sensor_type;location;lat;lon;timestamp;pressure;altitude;pressure_sealevel;temperature;humidity
61205;BME280;47068;55.780;37.520;2023-03-24T00:01:51;98636.00;;;10.98;58.29
61205;BME280;47068;55.780;37.520;2023-03-24T00:04:17;98592.88;;;10.82;58.49
61205;BME280;47068;55.780;37.520;2023-03-24T00:06:43;98575.91;;;10.61;58.58
61205;BME280;47068;55.780;37.520;2023-03-24T00:09:09;98627.75;;;10.93;58.38
61205;BME280;47068;55.780;37.520;2023-03-24T00:11:35;98610.97;;;10.93;58.25
61205;BME280;47068;55.780;37.520;2023-03-24T00:14:02;98610.47;;;10.83;58.49
61205;BME280;47068;55.780;37.520;2023-03-24T00:16:27;98600.97;;;10.74;59.11
61205;BME280;47068;55.780;37.520;2023-03-24T00:18:53;98609.53;;;10.69;59.18
61205;BME280;47068;55.780;37.520;2023-03-24T00:21:20;98593.88;;;10.59;59.60
61205;BME280;47068;55.780;37.520;2023-03-24T00:23:47;98603.53;;;10.60;59.44
61205;BME280;47068;55.780;37.520;2023-03-24T00:26:14;98574.50;;;10.44;59.78
61205;BME280;47068;55.780;37.520;2023-03-24T00:28:42;98591.41;;;10.58;59.03
61205;BME280;47068;55.780;37.520;2023-03-24T00:31:10;98542.94;;;10.35;59.91
61205;BME280;47068;55.780;37.520;2023-03-24T00:33:36;98581.06;;;10.63;59.70
61205;BME280;47068;55.780;37.520;2023-03-24T00:36:04;98573.00;;;10.56;59.62
61205;BME280;47068;55.780;37.520;2023-03-24T00:38:32;98579.09;;;10.72;59.46
61205;BME280;47068;55.780;37.520;2023-03-24T00:40:59;98564.13;;;10.71;59.63
61205;BME280;47068;55.780;37.520;2023-03-24T00:43:25;98532.59;;;10.68;59.39
61205;BME280;47068;55.780;37.520;2023-03-24T00:46:00;98547.22;;;10.78;59.37
61205;BME280;47068;55.780;37.520;2023-03-24T00:48:26;98530.56;;;10.70;59.05
61205;BME280;47068;55.780;37.520;2023-03-24T00:50:52;98557.09;;;10.84;59.24
61205;BME280;47068;55.780;37.520;2023-03-24T00:53:18;98551.84;;;10.70;59.53
61205;BME280;47068;55.780;37.520;2023-03-24T00:55:45;98546.13;;;10.73;59.49
61205;BME280;47068;55.780;37.520;2023-03-24T00:58:16;98535.88;;;10.70;59.21
61205;BME280;47068;55.780;37.520;2023-03-24T01:00:52;98566.63;;;10.79;59.12
61205;BME280;47068;55.780;37.520;2023-03-24T01:03:18;98568.91;;;10.82;58.92
61205;BME280;47068;55.780;37.520;2023-03-24T01:05:47;98563.59;;;10.82;59.00
61205;BME280;47068;55.780;37.520;2023-03-24T01:08:16;98580.63;;;10.87;59.23
61205;BME280;47068;55.780;37.520;2023-03-24T01:10:47;98565.53;;;10.94;58.95
61205;BME280;47068;55.780;37.520;2023-03-24T01:13:18;98560.66;;;10.98;58.50
61205;BME280;47068;55.780;37.520;2023-03-24T01:15:44;98562.50;;;10.97;58.39
61205;BME280;47068;55.780;37.520;2023-03-24T01:18:11;98552.03;;;10.96;58.68
61205;BME280;47068;55.780;37.520;2023-03-24T01:20:40;98541.78;;;10.93;58.43
61205;BME280;47068;55.780;37.520;2023-03-24T01:23:16;98554.88;;;10.94;58.67
61205;BME280;47068;55.780;37.520;2023-03-24T01:25:42;98553.06;;;10.95;58.78
61205;BME280;47068;55.780;37.520;2023-03-24T01:28:15;98546.53;;;10.97;58.80
61205;BME280;47068;55.780;37.520;2023-03-24T01:30:41;98540.63;;;11.02;59.46
61205;BME280;47068;55.780;37.520;2023-03-24T01:33:07;98533.84;;;10.99;60.72
61205;BME280;47068;55.780;37.520;2023-03-24T01:35:33;98521.66;;;10.84;60.21
61205;BME280;47068;55.780;37.520;2023-03-24T01:37:58;98513.25;;;10.80;60.95
61205;BME280;47068;55.780;37.520;2023-03-24T01:40:29;98522.97;;;10.94;60.53
61205;BME280;47068;55.780;37.520;2023-03-24T01:42:56;98532.72;;;10.87;60.47
61205;BME280;47068;55.780;37.520;2023-03-24T01:48:26;98517.59;;;10.88;61.00
61205;BME280;47068;55.780;37.520;2023-03-24T01:51:00;98515.56;;;10.90;60.75
61205;BME280;47068;55.780;37.520;2023-03-24T01:53:29;98522.72;;;10.89;61.04
61205;BME280;47068;55.780;37.520;2023-03-24T01:55:56;98501.53;;;10.75;60.94
61205;BME280;47068;55.780;37.520;2023-03-24T01:58:24;98518.59;;;10.87;60.99
61205;BME280;47068;55.780;37.520;2023-03-24T02:00:52;98512.28;;;10.88;60.67
61205;BME280;47068;55.780;37.520;2023-03-24T02:03:21;98513.50;;;10.85;60.84
61205;BME280;47068;55.780;37.520;2023-03-24T02:05:50;98486.38;;;10.69;60.38
61205;BME280;47068;55.780;37.520;2023-03-24T02:08:51;98506.22;;;10.73;60.38
61205;BME280;47068;55.780;37.520;2023-03-24T02:11:19;98498.41;;;10.64;61.03
61205;BME280;47068;55.780;37.520;2023-03-24T02:13:44;98499.88;;;10.74;60.64
61205;BME280;47068;55.780;37.520;2023-03-24T02:24:54;98483.69;;;10.96;59.78
61205;BME280;47068;55.780;37.520;2023-03-24T02:30:50;98488.59;;;10.99;59.50
61205;BME280;47068;55.780;37.520;2023-03-24T02:39:13;98467.97;;;11.08;59.62
61205;BME280;47068;55.780;37.520;2023-03-24T02:41:54;98442.31;;;10.94;59.49
61205;BME280;47068;55.780;37.520;2023-03-24T02:44:38;98463.91;;;11.12;59.31
61205;BME280;47068;55.780;37.520;2023-03-24T02:47:11;98455.94;;;11.12;59.40
61205;BME280;47068;55.780;37.520;2023-03-24T02:50:08;98464.72;;;11.06;59.50
61205;BME280;47068;55.780;37.520;2023-03-24T02:55:39;98454.28;;;11.11;59.59
61205;BME280;47068;55.780;37.520;2023-03-24T02:58:14;98463.31;;;11.17;59.08
61205;BME280;47068;55.780;37.520;2023-03-24T03:00:46;98458.38;;;11.14;59.50
61205;BME280;47068;55.780;37.520;2023-03-24T03:03:27;98449.81;;;11.18;59.40
61205;BME280;47068;55.780;37.520;2023-03-24T03:06:46;98431.75;;;11.14;59.01
61205;BME280;47068;55.780;37.520;2023-03-24T03:08:47;98446.19;;;11.32;58.98
61205;BME280;47068;55.780;37.520;2023-03-24T03:11:15;98442.50;;;11.33;58.68
61205;BME280;47068;55.780;37.520;2023-03-24T03:14:03;98379.28;;;11.01;58.60
61205;BME280;47068;55.780;37.520;2023-03-24T03:16:41;98437.19;;;11.33;58.92
61205;BME280;47068;55.780;37.520;2023-03-24T03:19:24;98429.78;;;11.35;58.33
61205;BME280;47068;55.780;37.520;2023-03-24T03:21:53;98430.59;;;11.29;58.84
61205;BME280;47068;55.780;37.520;2023-03-24T03:24:26;98423.25;;;11.31;58.81
61205;BME280;47068;55.780;37.520;2023-03-24T03:27:06;98418.31;;;11.28;58.52
61205;BME280;47068;55.780;37.520;2023-03-24T03:29:38;98414.44;;;11.31;58.96
61205;BME280;47068;55.780;37.520;2023-03-24T03:32:06;98417.91;;;11.31;58.25
61205;BME280;47068;55.780;37.520;2023-03-24T03:37:16;98411.75;;;11.24;58.75
61205;BME280;47068;55.780;37.520;2023-03-24T03:39:49;98417.69;;;11.26;58.96
61205;BME280;47068;55.780;37.520;2023-03-24T03:42:17;98393.22;;;10.96;59.92
61205;BME280;47068;55.780;37.520;2023-03-24T03:44:43;98425.63;;;11.13;60.99
61205;BME280;47068;55.780;37.520;2023-03-24T03:47:08;98288.53;;;10.29;61.35
61205;BME280;47068;55.780;37.520;2023-03-24T03:49:35;98428.84;;;11.02;62.23
61205;BME280;47068;55.780;37.520;2023-03-24T03:52:01;98385.16;;;10.83;62.81
61205;BME280;47068;55.780;37.520;2023-03-24T03:54:29;98420.22;;;11.00;63.02
61205;BME280;47068;55.780;37.520;2023-03-24T03:56:56;98417.56;;;11.00;63.43
61205;BME280;47068;55.780;37.520;2023-03-24T03:59:43;98421.66;;;10.96;64.32
61205;BME280;47068;55.780;37.520;2023-03-24T04:08:00;98420.91;;;10.74;65.16
61205;BME280;47068;55.780;37.520;2023-03-24T04:18:17;98423.53;;;10.68;66.50
61205;BME280;47068;55.780;37.520;2023-03-24T04:20:52;98419.22;;;10.66;66.94
61205;BME280;47068;55.780;37.520;2023-03-24T04:23:37;98371.22;;;10.40;67.19
61205;BME280;47068;55.780;37.520;2023-03-24T04:26:21;98406.50;;;10.55;67.66
61205;BME280;47068;55.780;37.520;2023-03-24T04:32:26;98417.03;;;10.42;68.88
61205;BME280;47068;55.780;37.520;2023-03-24T04:34:56;98412.53;;;10.43;69.01
61205;BME280;47068;55.780;37.520;2023-03-24T04:37:31;98407.41;;;10.41;69.22
61205;BME280;47068;55.780;37.520;2023-03-24T04:40:05;98409.88;;;10.43;69.02
61205;BME280;47068;55.780;37.520;2023-03-24T04:42:45;98406.63;;;10.47;69.04
61205;BME280;47068;55.780;37.520;2023-03-24T04:45:13;98409.75;;;10.51;69.22
61205;BME280;47068;55.780;37.520;2023-03-24T04:47:45;98361.91;;;10.23;69.38
61205;BME280;47068;55.780;37.520;2023-03-24T04:50:12;98401.50;;;10.46;69.54
61205;BME280;47068;55.780;37.520;2023-03-24T04:52:39;98412.97;;;10.46;69.59
61205;BME280;47068;55.780;37.520;2023-03-24T04:57:48;98396.59;;;10.43;70.56
61205;BME280;47068;55.780;37.520;2023-03-24T05:00:13;98399.44;;;10.41;70.82
61205;BME280;47068;55.780;37.520;2023-03-24T05:02:40;98402.31;;;10.46;70.05
61205;BME280;47068;55.780;37.520;2023-03-24T05:05:06;98388.41;;;10.44;70.36
61205;BME280;47068;55.780;37.520;2023-03-24T05:07:32;98392.63;;;10.32;70.41
61205;BME280;47068;55.780;37.520;2023-03-24T05:09:57;98392.81;;;10.31;70.63
61205;BME280;47068;55.780;37.520;2023-03-24T05:12:23;98394.44;;;10.32;70.89
61205;BME280;47068;55.780;37.520;2023-03-24T05:14:48;98408.84;;;10.37;70.89
61205;BME280;47068;55.780;37.520;2023-03-24T05:17:14;98402.06;;;10.35;71.01
61205;BME280;47068;55.780;37.520;2023-03-24T05:19:39;98415.75;;;10.38;70.99
61205;BME280;47068;55.780;37.520;2023-03-24T05:22:05;98406.53;;;10.34;71.23
61205;BME280;47068;55.780;37.520;2023-03-24T05:24:32;98411.50;;;10.37;70.76
61205;BME280;47068;55.780;37.520;2023-03-24T05:26:58;98409.84;;;10.36;70.99
61205;BME280;47068;55.780;37.520;2023-03-24T05:29:24;98413.31;;;10.37;71.46
61205;BME280;47068;55.780;37.520;2023-03-24T05:31:50;98410.44;;;10.38;70.99
61205;BME280;47068;55.780;37.520;2023-03-24T05:34:15;98416.03;;;10.43;71.23
61205;BME280;47068;55.780;37.520;2023-03-24T05:36:41;98406.22;;;10.44;71.17
61205;BME280;47068;55.780;37.520;2023-03-24T05:39:06;98408.66;;;10.45;70.94
61205;BME280;47068;55.780;37.520;2023-03-24T05:41:32;98409.47;;;10.46;70.98
61205;BME280;47068;55.780;37.520;2023-03-24T05:43:57;98410.50;;;10.45;71.15
61205;BME280;47068;55.780;37.520;2023-03-24T05:46:23;98403.75;;;10.42;71.34
61205;BME280;47068;55.780;37.520;2023-03-24T05:48:48;98387.31;;;10.32;71.70
61205;BME280;47068;55.780;37.520;2023-03-24T05:51:15;98410.94;;;10.48;71.42
61205;BME280;47068;55.780;37.520;2023-03-24T05:53:41;98400.69;;;10.45;71.29
61205;BME280;47068;55.780;37.520;2023-03-24T05:56:06;98400.97;;;10.57;71.46
61205;BME280;47068;55.780;37.520;2023-03-24T05:58:36;98390.91;;;10.52;71.38
61205;BME280;47068;55.780;37.520;2023-03-24T06:01:07;98405.44;;;10.50;71.82
61205;BME280;47068;55.780;37.520;2023-03-24T06:03:34;98398.66;;;10.47;71.91
61205;BME280;47068;55.780;37.520;2023-03-24T06:06:05;98405.81;;;10.47;72.34
61205;BME280;47068;55.780;37.520;2023-03-24T06:08:34;98384.28;;;10.35;72.33
61205;BME280;47068;55.780;37.520;2023-03-24T06:11:01;98399.53;;;10.54;72.11
61205;BME280;47068;55.780;37.520;2023-03-24T06:13:28;98392.97;;;10.50;72.12
61205;BME280;47068;55.780;37.520;2023-03-24T06:15:56;98387.59;;;10.44;72.31
61205;BME280;47068;55.780;37.520;2023-03-24T06:18:26;98389.34;;;10.30;72.48
61205;BME280;47068;55.780;37.520;2023-03-24T06:20:53;98398.63;;;10.41;72.79
61205;BME280;47068;55.780;37.520;2023-03-24T06:23:26;98404.34;;;10.44;72.92
61205;BME280;47068;55.780;37.520;2023-03-24T06:25:53;98403.56;;;10.44;72.55
61205;BME280;47068;55.780;37.520;2023-03-24T06:28:20;98407.41;;;10.41;72.66
61205;BME280;47068;55.780;37.520;2023-03-24T06:30:46;98401.28;;;10.41;72.70
61205;BME280;47068;55.780;37.520;2023-03-24T06:33:13;98391.28;;;10.43;73.24
61205;BME280;47068;55.780;37.520;2023-03-24T06:35:39;98398.28;;;10.50;72.97
61205;BME280;47068;55.780;37.520;2023-03-24T06:38:05;98401.94;;;10.49;72.45
61205;BME280;47068;55.780;37.520;2023-03-24T06:40:31;98401.53;;;10.52;72.68
61205;BME280;47068;55.780;37.520;2023-03-24T06:42:57;98397.09;;;10.59;72.79
61205;BME280;47068;55.780;37.520;2023-03-24T06:45:22;98390.94;;;10.59;72.72
61205;BME280;47068;55.780;37.520;2023-03-24T06:47:48;98393.91;;;10.71;72.21
61205;BME280;47068;55.780;37.520;2023-03-24T06:50:16;98400.41;;;10.68;72.53
61205;BME280;47068;55.780;37.520;2023-03-24T06:52:41;98364.28;;;10.46;72.71
61205;BME280;47068;55.780;37.520;2023-03-24T06:55:07;98398.38;;;10.63;72.90
61205;BME280;47068;55.780;37.520;2023-03-24T06:57:32;98397.91;;;10.60;72.89
61205;BME280;47068;55.780;37.520;2023-03-24T06:59:58;98383.56;;;10.54;72.89
61205;BME280;47068;55.780;37.520;2023-03-24T07:02:23;98392.22;;;10.63;73.05
61205;BME280;47068;55.780;37.520;2023-03-24T07:04:49;98360.56;;;10.40;72.88
61205;BME280;47068;55.780;37.520;2023-03-24T07:07:18;98390.13;;;10.58;73.33
61205;BME280;47068;55.780;37.520;2023-03-24T07:09:46;98393.00;;;10.57;73.41
61205;BME280;47068;55.780;37.520;2023-03-24T07:12:11;98372.06;;;10.47;73.17
61205;BME280;47068;55.780;37.520;2023-03-24T07:14:37;98402.44;;;10.66;73.16
61205;BME280;47068;55.780;37.520;2023-03-24T07:17:02;98378.25;;;10.54;73.23
61205;BME280;47068;55.780;37.520;2023-03-24T07:19:28;98410.72;;;10.78;73.13
61205;BME280;47068;55.780;37.520;2023-03-24T07:21:53;98398.84;;;10.80;72.74
61205;BME280;47068;55.780;37.520;2023-03-24T07:24:19;98379.16;;;10.68;72.62
61205;BME280;47068;55.780;37.520;2023-03-24T07:26:44;98401.69;;;10.79;72.84
61205;BME280;47068;55.780;37.520;2023-03-24T07:29:10;98374.81;;;10.60;72.61
61205;BME280;47068;55.780;37.520;2023-03-24T07:31:36;98411.97;;;10.82;72.30
61205;BME280;47068;55.780;37.520;2023-03-24T07:34:04;98415.63;;;10.81;72.60
61205;BME280;47068;55.780;37.520;2023-03-24T07:36:30;98415.81;;;10.79;73.05
61205;BME280;47068;55.780;37.520;2023-03-24T07:38:55;98363.91;;;10.49;73.05
61205;BME280;47068;55.780;37.520;2023-03-24T07:41:21;98413.97;;;10.80;72.87
61205;BME280;47068;55.780;37.520;2023-03-24T07:43:47;98418.09;;;10.82;72.82
61205;BME280;47068;55.780;37.520;2023-03-24T07:46:12;98410.34;;;10.87;72.96
61205;BME280;47068;55.780;37.520;2023-03-24T07:48:38;98376.66;;;10.66;72.28
61205;BME280;47068;55.780;37.520;2023-03-24T07:51:03;98396.84;;;10.89;72.48
61205;BME280;47068;55.780;37.520;2023-03-24T07:53:29;98411.22;;;11.01;72.42
61205;BME280;47068;55.780;37.520;2023-03-24T07:55:54;98017.34;;;8.51;72.45
61205;BME280;47068;55.780;37.520;2023-03-24T07:58:20;98420.47;;;11.05;72.36
61205;BME280;47068;55.780;37.520;2023-03-24T08:00:45;98426.41;;;11.07;72.38
61205;BME280;47068;55.780;37.520;2023-03-24T08:03:12;98326.69;;;10.49;71.67
61205;BME280;47068;55.780;37.520;2023-03-24T08:05:38;98426.84;;;11.11;71.72
61205;BME280;47068;55.780;37.520;2023-03-24T08:08:04;98419.50;;;11.13;71.57
61205;BME280;47068;55.780;37.520;2023-03-24T08:10:31;98426.25;;;11.15;71.12
61205;BME280;47068;55.780;37.520;2023-03-24T08:12:57;98431.34;;;11.10;72.03
61205;BME280;47068;55.780;37.520;2023-03-24T08:15:24;98439.94;;;11.05;72.16
61205;BME280;47068;55.780;37.520;2023-03-24T08:17:50;98435.38;;;10.99;72.66
61205;BME280;47068;55.780;37.520;2023-03-24T08:20:17;98431.28;;;10.97;72.27
61205;BME280;47068;55.780;37.520;2023-03-24T08:22:46;98435.34;;;10.93;72.85
61205;BME280;47068;55.780;37.520;2023-03-24T08:25:19;98435.97;;;10.95;72.70
61205;BME280;47068;55.780;37.520;2023-03-24T08:27:45;98406.59;;;10.75;73.01
61205;BME280;47068;55.780;37.520;2023-03-24T08:30:22;98434.56;;;10.99;72.57
61205;BME280;47068;55.780;37.520;2023-03-24T08:32:53;98427.47;;;11.13;72.20
61205;BME280;47068;55.780;37.520;2023-03-24T08:35:23;98429.56;;;11.24;72.28
61205;BME280;47068;55.780;37.520;2023-03-24T08:37:49;98437.19;;;11.33;71.79
61205;BME280;47068;55.780;37.520;2023-03-24T08:40:18;98436.97;;;11.41;71.48
61205;BME280;47068;55.780;37.520;2023-03-24T08:42:49;98433.75;;;11.46;71.54
61205;BME280;47068;55.780;37.520;2023-03-24T08:45:16;98418.53;;;11.33;70.99
61205;BME280;47068;55.780;37.520;2023-03-24T08:47:45;98426.72;;;11.32;70.81
61205;BME280;47068;55.780;37.520;2023-03-24T08:50:11;98444.78;;;11.43;71.69
61205;BME280;47068;55.780;37.520;2023-03-24T08:52:37;98441.94;;;11.44;71.18
61205;BME280;47068;55.780;37.520;2023-03-24T08:55:03;98439.88;;;11.40;71.14
61205;BME280;47068;55.780;37.520;2023-03-24T08:57:30;98443.75;;;11.44;71.34
61205;BME280;47068;55.780;37.520;2023-03-24T08:59:55;98442.94;;;11.43;71.94
61205;BME280;47068;55.780;37.520;2023-03-24T09:02:21;98450.13;;;11.50;71.17
61205;BME280;47068;55.780;37.520;2023-03-24T09:04:46;98426.53;;;11.33;71.09
61205;BME280;47068;55.780;37.520;2023-03-24T09:07:14;98433.00;;;11.18;71.29
61205;BME280;47068;55.780;37.520;2023-03-24T09:09:40;98456.38;;;11.22;71.34
61205;BME280;47068;55.780;37.520;2023-03-24T09:12:06;98462.53;;;11.23;71.75
61205;BME280;47068;55.780;37.520;2023-03-24T09:14:31;98458.63;;;11.19;71.80
61205;BME280;47068;55.780;37.520;2023-03-24T09:16:57;98438.47;;;11.03;71.89
61205;BME280;47068;55.780;37.520;2023-03-24T09:19:23;98465.78;;;11.18;71.70
61205;BME280;47068;55.780;37.520;2023-03-24T09:21:48;98436.19;;;11.00;72.13
61205;BME280;47068;55.780;37.520;2023-03-24T09:24:14;98454.53;;;11.23;71.71
61205;BME280;47068;55.780;37.520;2023-03-24T09:26:40;98469.53;;;11.30;72.18
61205;BME280;47068;55.780;37.520;2023-03-24T09:29:05;98467.72;;;11.37;71.51
61205;BME280;47068;55.780;37.520;2023-03-24T09:31:31;98443.94;;;11.36;71.42
61205;BME280;47068;55.780;37.520;2023-03-24T09:33:57;98467.97;;;11.56;71.02
61205;BME280;47068;55.780;37.520;2023-03-24T09:36:23;98471.25;;;11.58;70.79
61205;BME280;47068;55.780;37.520;2023-03-24T09:38:49;98442.28;;;11.35;71.11
61205;BME280;47068;55.780;37.520;2023-03-24T09:41:23;98477.41;;;11.58;71.33
61205;BME280;47068;55.780;37.520;2023-03-24T09:44:01;98488.44;;;11.49;70.75
61205;BME280;47068;55.780;37.520;2023-03-24T09:46:29;98492.34;;;11.46;70.92
61205;BME280;47068;55.780;37.520;2023-03-24T09:48:56;98356.19;;;10.60;70.87
61205;BME280;47068;55.780;37.520;2023-03-24T09:51:33;98482.34;;;11.20;70.80
61205;BME280;47068;55.780;37.520;2023-03-24T09:54:07;98493.63;;;11.22;71.14
61205;BME280;47068;55.780;37.520;2023-03-24T09:56:39;98491.13;;;11.14;71.68
61205;BME280;47068;55.780;37.520;2023-03-24T09:59:16;98458.91;;;10.96;71.86
61205;BME280;47068;55.780;37.520;2023-03-24T10:01:42;98496.91;;;11.18;71.73
61205;BME280;47068;55.780;37.520;2023-03-24T10:04:17;98497.88;;;11.10;71.99
61205;BME280;47068;55.780;37.520;2023-03-24T10:06:44;98490.09;;;11.09;71.96
61205;BME280;47068;55.780;37.520;2023-03-24T10:09:47;98499.72;;;11.10;71.82
61205;BME280;47068;55.780;37.520;2023-03-24T10:12:33;98503.59;;;11.07;72.10
61205;BME280;47068;55.780;37.520;2023-03-24T10:17:50;98505.88;;;11.10;71.98
61205;BME280;47068;55.780;37.520;2023-03-24T10:23:19;98496.66;;;11.06;72.45
61205;BME280;47068;55.780;37.520;2023-03-24T10:30:43;98502.47;;;11.29;71.59
61205;BME280;47068;55.780;37.520;2023-03-24T10:33:11;98505.19;;;11.36;71.08
61205;BME280;47068;55.780;37.520;2023-03-24T10:36:04;98505.19;;;11.36;70.84
61205;BME280;47068;55.780;37.520;2023-03-24T10:38:32;98412.00;;;10.88;70.41
61205;BME280;47068;55.780;37.520;2023-03-24T10:40:58;98505.09;;;11.64;70.93
61205;BME280;47068;55.780;37.520;2023-03-24T10:43:28;98504.34;;;11.83;69.90
61205;BME280;47068;55.780;37.520;2023-03-24T10:45:55;98480.75;;;11.73;69.16
61205;BME280;47068;55.780;37.520;2023-03-24T10:48:39;98505.81;;;11.92;68.35
61205;BME280;47068;55.780;37.520;2023-03-24T10:51:11;98517.69;;;11.90;68.63
61205;BME280;47068;55.780;37.520;2023-03-24T10:53:38;98516.09;;;11.89;67.88
61205;BME280;47068;55.780;37.520;2023-03-24T10:56:04;98523.84;;;11.83;68.31
61205;BME280;47068;55.780;37.520;2023-03-24T10:58:41;98519.13;;;11.79;68.18
61205;BME280;47068;55.780;37.520;2023-03-24T11:01:27;98481.91;;;11.58;68.36
61205;BME280;47068;55.780;37.520;2023-03-24T11:03:59;98512.28;;;11.70;68.69
61205;BME280;47068;55.780;37.520;2023-03-24T11:06:27;98522.56;;;11.73;68.53
61205;BME280;47068;55.780;37.520;2023-03-24T11:09:17;98522.19;;;11.82;68.68
61205;BME280;47068;55.780;37.520;2023-03-24T11:11:43;98482.97;;;11.70;68.40
61205;BME280;47068;55.780;37.520;2023-03-24T11:14:24;98476.47;;;11.79;68.12
61205;BME280;47068;55.780;37.520;2023-03-24T11:16:52;98532.56;;;12.38;67.25
61205;BME280;47068;55.780;37.520;2023-03-24T11:19:20;98495.66;;;12.61;66.86
61205;BME280;47068;55.780;37.520;2023-03-24T11:21:48;98495.81;;;12.86;65.63
61205;BME280;47068;55.780;37.520;2023-03-24T11:24:18;98520.88;;;13.18;64.88
61205;BME280;47068;55.780;37.520;2023-03-24T11:26:58;98512.84;;;13.05;64.94
61205;BME280;47068;55.780;37.520;2023-03-24T11:29:27;98526.59;;;13.09;64.04
61205;BME280;47068;55.780;37.520;2023-03-24T11:32:02;98519.41;;;13.02;63.73
61205;BME280;47068;55.780;37.520;2023-03-24T11:34:34;98537.09;;;12.90;63.81
61205;BME280;47068;55.780;37.520;2023-03-24T11:37:30;98532.97;;;12.94;64.25
61205;BME280;47068;55.780;37.520;2023-03-24T11:40:14;98530.53;;;12.93;64.48
61205;BME280;47068;55.780;37.520;2023-03-24T11:42:48;98534.22;;;12.98;63.88
61205;BME280;47068;55.780;37.520;2023-03-24T11:45:35;98533.81;;;12.82;63.68
61205;BME280;47068;55.780;37.520;2023-03-24T11:48:11;98544.31;;;12.70;63.89
61205;BME280;47068;55.780;37.520;2023-03-24T11:50:40;98544.50;;;12.62;64.63
61205;BME280;47068;55.780;37.520;2023-03-24T11:53:12;98546.72;;;12.58;64.45
61205;BME280;47068;55.780;37.520;2023-03-24T11:56:01;98531.78;;;12.44;64.81
61205;BME280;47068;55.780;37.520;2023-03-24T12:01:06;98562.34;;;12.88;64.53
61205;BME280;47068;55.780;37.520;2023-03-24T12:03:47;98560.09;;;13.05;63.92
61205;BME280;47068;55.780;37.520;2023-03-24T12:06:40;98502.22;;;12.72;62.71
61205;BME280;47068;55.780;37.520;2023-03-24T12:09:30;98564.19;;;13.07;62.99
61205;BME280;47068;55.780;37.520;2023-03-24T12:12:24;98567.09;;;12.99;63.53
61205;BME280;47068;55.780;37.520;2023-03-24T12:23:37;98563.38;;;12.54;62.88
61205;BME280;47068;55.780;37.520;2023-03-24T12:26:19;98585.16;;;12.64;63.51
61205;BME280;47068;55.780;37.520;2023-03-24T12:38:00;98576.09;;;12.58;62.85
61205;BME280;47068;55.780;37.520;2023-03-24T12:56:59;98464.75;;;11.67;63.41
61205;BME280;47068;55.780;37.520;2023-03-24T12:59:37;98573.19;;;12.34;64.33
61205;BME280;47068;55.780;37.520;2023-03-24T13:02:29;98564.16;;;12.35;63.56
61205;BME280;47068;55.780;37.520;2023-03-24T13:05:02;98567.06;;;12.53;63.93
61205;BME280;47068;55.780;37.520;2023-03-24T13:07:33;98594.38;;;12.81;63.03
61205;BME280;47068;55.780;37.520;2023-03-24T13:10:13;98575.69;;;12.68;62.24
61205;BME280;47068;55.780;37.520;2023-03-24T13:13:00;98524.56;;;12.32;62.97
61205;BME280;47068;55.780;37.520;2023-03-24T13:15:47;98590.47;;;12.64;62.52
61205;BME280;47068;55.780;37.520;2023-03-24T13:18:32;98561.69;;;12.40;62.87
61205;BME280;47068;55.780;37.520;2023-03-24T13:31:34;98593.66;;;12.13;63.59
61205;BME280;47068;55.780;37.520;2023-03-24T13:34:01;98601.66;;;12.13;63.92
61205;BME280;47068;55.780;37.520;2023-03-24T13:36:46;98603.09;;;12.16;63.22
61205;BME280;47068;55.780;37.520;2023-03-24T13:39:17;98452.25;;;11.13;63.12
61205;BME280;47068;55.780;37.520;2023-03-24T13:41:51;98609.44;;;12.08;62.98
61205;BME280;47068;55.780;37.520;2023-03-24T13:44:46;98597.66;;;11.90;63.63
61205;BME280;47068;55.780;37.520;2023-03-24T13:47:13;98617.44;;;12.08;63.39
61205;BME280;47068;55.780;37.520;2023-03-24T13:49:41;98616.16;;;12.04;63.22
61205;BME280;47068;55.780;37.520;2023-03-24T13:52:37;98612.31;;;12.13;62.83
61205;BME280;47068;55.780;37.520;2023-03-24T13:55:20;98617.28;;;12.23;62.89
61205;BME280;47068;55.780;37.520;2023-03-24T13:57:54;98617.28;;;12.30;62.06
61205;BME280;47068;55.780;37.520;2023-03-24T14:00:23;98615.22;;;12.32;61.82
61205;BME280;47068;55.780;37.520;2023-03-24T14:08:09;98622.84;;;12.35;61.98
61205;BME280;47068;55.780;37.520;2023-03-24T14:10:38;98613.81;;;12.36;61.14
61205;BME280;47068;55.780;37.520;2023-03-24T14:15:55;98631.50;;;12.43;61.73
61205;BME280;47068;55.780;37.520;2023-03-24T14:23:43;98629.81;;;12.36;62.40
61205;BME280;47068;55.780;37.520;2023-03-24T14:28:47;98638.38;;;12.18;61.19
61205;BME280;47068;55.780;37.520;2023-03-24T14:36:34;98647.03;;;11.79;62.63
61205;BME280;47068;55.780;37.520;2023-03-24T14:39:11;98653.44;;;11.91;62.75
61205;BME280;47068;55.780;37.520;2023-03-24T14:41:44;98660.41;;;11.92;62.57
61205;BME280;47068;55.780;37.520;2023-03-24T14:44:09;98651.41;;;11.93;62.22
61205;BME280;47068;55.780;37.520;2023-03-24T14:46:38;98645.47;;;11.98;61.77
61205;BME280;47068;55.780;37.520;2023-03-24T14:54:34;98638.69;;;11.95;61.07
61205;BME280;47068;55.780;37.520;2023-03-24T14:57:02;98665.38;;;12.02;60.87
61205;BME280;47068;55.780;37.520;2023-03-24T15:02:26;98658.34;;;11.88;60.55
61205;BME280;47068;55.780;37.520;2023-03-24T15:07:43;98679.41;;;11.82;60.88
61205;BME280;47068;55.780;37.520;2023-03-24T15:10:18;98657.03;;;11.49;61.80
61205;BME280;47068;55.780;37.520;2023-03-24T15:12:45;98683.16;;;11.60;61.60
61205;BME280;47068;55.780;37.520;2023-03-24T15:15:21;98695.09;;;11.71;61.83
61205;BME280;47068;55.780;37.520;2023-03-24T15:17:48;98695.97;;;11.50;61.83
61205;BME280;47068;55.780;37.520;2023-03-24T15:20:33;98701.13;;;11.52;62.08
61205;BME280;47068;55.780;37.520;2023-03-24T15:23:06;98706.63;;;11.50;61.68
61205;BME280;47068;55.780;37.520;2023-03-24T15:25:31;98711.41;;;11.55;61.70